Time;durP1;ratioP1;P1;durP2;ratioP2;P2;SDS_P1;SDS_P2;PMS_P1;PMS_P2;Temp;Humidity;BMP_temperature;BMP_pressure;BME280_temperature;BME280_humidity;BME280_pressure;Samples;Min_cycle;Max_cycle;Signal;HPM_P1;HPM_P2
2022/05/08 00:02:09;;;;;;;;;;;12.80;99.90;;;;;;5049678;28;19928;-77
2022/05/08 00:04:36;;;;;;;;;;;12.80;99.90;;;;;;5051918;28;19931;-78
2022/05/08 00:07:03;;;;;;;;;;;12.80;99.90;;;;;;5047111;28;20028;-77
2022/05/08 00:09:31;;;;;;;;;;;12.70;99.90;;;;;;5048146;28;19939;-78
2022/05/08 00:11:58;;;;;;;;;;;12.70;99.90;;;;;;5042992;28;20319;-77
2022/05/08 00:14:25;;;;;;;;;;;12.70;99.90;;;;;;5047985;28;19925;-77
2022/05/08 00:16:51;;;;;;;;;;;12.70;99.90;;;;;;5040675;28;19925;-78
2022/05/08 00:19:18;;;;;;;;;;;12.60;99.90;;;;;;5045850;28;19925;-82
2022/05/08 00:21:45;;;;;;;;;;;12.60;99.90;;;;;;5042252;28;19924;-81
2022/05/08 00:24:11;;;;;;;;;;;12.50;99.90;;;;;;5051328;28;19931;-80
2022/05/08 00:26:39;;;;;;;;;;;12.50;99.90;;;;;;5048352;28;20406;-79
2022/05/08 00:29:07;;;;;;;;;;;12.50;99.90;;;;;;5048866;28;19931;-79
2022/05/08 00:31:34;;;;;;;;;;;12.40;99.90;;;;;;5052459;28;19924;-79
2022/05/08 00:34:02;;;;;;;;;;;12.50;99.90;;;;;;5052387;28;19929;-79
2022/05/08 00:36:29;;;;;;;;;;;12.40;99.90;;;;;;5053130;28;19925;-78
2022/05/08 00:38:56;;;;;;;;;;;12.40;99.90;;;;;;5049751;28;19931;-79
2022/05/08 00:41:22;;;;;;;;;;;12.30;99.90;;;;;;5053098;28;19925;-79
2022/05/08 00:43:50;;;;;;;;;;;12.30;99.90;;;;;;5048504;28;19931;-80
2022/05/08 00:46:17;;;;;;;;;;;12.30;99.90;;;;;;5050416;28;19979;-79
2022/05/08 00:48:44;;;;;;;;;;;12.20;99.90;;;;;;5050786;28;20016;-81
2022/05/08 00:51:11;;;;;;;;;;;12.20;99.90;;;;;;5052623;28;19928;-80
2022/05/08 00:53:40;;;;;;;;;;;12.10;99.90;;;;;;5042450;28;20032;-81
2022/05/08 00:56:07;;;;;;;;;;;12.10;99.90;;;;;;5049076;28;20019;-79
2022/05/08 00:58:34;;;;;;;;;;;12.10;99.90;;;;;;5052304;28;20398;-83
2022/05/08 01:01:02;;;;;;;;;;;12.10;99.90;;;;;;5052000;28;19925;-81
2022/05/08 01:03:29;;;;;;;;;;;12.10;99.90;;;;;;5051649;28;20276;-81
2022/05/08 01:05:57;;;;;;;;;;;12.10;99.90;;;;;;5052228;28;19925;-82
2022/05/08 01:08:24;;;;;;;;;;;12.10;99.90;;;;;;5053738;28;19926;-79
2022/05/08 01:10:53;;;;;;;;;;;12.10;99.90;;;;;;5052057;28;19925;-81
2022/05/08 01:13:19;;;;;;;;;;;12.00;99.90;;;;;;5050488;28;20315;-82
2022/05/08 01:15:47;;;;;;;;;;;12.00;99.90;;;;;;5052138;28;19971;-83
2022/05/08 01:18:15;;;;;;;;;;;11.90;99.90;;;;;;5051724;28;19924;-80
2022/05/08 01:20:45;;;;;;;;;;;11.90;99.90;;;;;;5050920;28;19925;-81
2022/05/08 01:23:15;;;;;;;;;;;11.90;99.90;;;;;;5050440;28;19960;-80
2022/05/08 01:25:45;;;;;;;;;;;11.90;99.90;;;;;;5051301;28;20417;-81
2022/05/08 01:28:12;;;;;;;;;;;11.80;99.90;;;;;;5052507;28;19925;-81
2022/05/08 01:30:39;;;;;;;;;;;11.80;99.90;;;;;;5051108;28;19931;-78
2022/05/08 01:33:06;;;;;;;;;;;11.70;99.90;;;;;;5047835;28;19925;-79
2022/05/08 01:35:33;;;;;;;;;;;11.70;99.90;;;;;;5051524;28;20274;-77
2022/05/08 01:38:00;;;;;;;;;;;11.70;99.90;;;;;;5049805;28;19932;-80
2022/05/08 01:40:30;;;;;;;;;;;11.70;99.90;;;;;;5049656;28;19931;-77
2022/05/08 01:42:56;;;;;;;;;;;11.80;99.90;;;;;;5053047;28;20392;-79
2022/05/08 01:45:23;;;;;;;;;;;11.80;99.90;;;;;;5047946;28;20383;-78
2022/05/08 01:50:34;;;;;;;;;;;11.80;99.90;;;;;;5053085;28;19935;-81
2022/05/08 01:53:00;;;;;;;;;;;11.80;99.90;;;;;;5054362;28;20183;-82
2022/05/08 01:55:28;;;;;;;;;;;11.80;99.90;;;;;;5053281;28;19998;-78
2022/05/08 01:57:55;;;;;;;;;;;11.80;99.90;;;;;;5048918;28;19979;-80
2022/05/08 02:00:22;;;;;;;;;;;11.80;99.90;;;;;;5051278;28;19925;-79
2022/05/08 02:02:50;;;;;;;;;;;11.90;99.90;;;;;;5041756;28;20406;-77
2022/05/08 02:05:17;;;;;;;;;;;11.90;99.90;;;;;;5047104;28;20059;-79
2022/05/08 02:07:45;;;;;;;;;;;11.90;99.90;;;;;;5045374;28;19975;-78
2022/05/08 02:10:12;;;;;;;;;;;11.90;99.90;;;;;;5047869;28;19928;-79
2022/05/08 02:12:40;;;;;;;;;;;11.90;99.90;;;;;;5045535;28;20374;-77
2022/05/08 02:15:07;;;;;;;;;;;11.80;99.90;;;;;;5048454;28;19925;-78
2022/05/08 02:17:34;;;;;;;;;;;11.80;99.90;;;;;;5047951;28;20399;-78
2022/05/08 02:20:01;;;;;;;;;;;11.80;99.90;;;;;;5048104;28;19939;-77
2022/05/08 02:22:27;;;;;;;;;;;11.80;99.90;;;;;;5047324;28;20024;-75
2022/05/08 02:24:54;;;;;;;;;;;11.70;99.90;;;;;;5048631;28;20274;-79
2022/05/08 02:27:21;;;;;;;;;;;11.70;99.90;;;;;;5049657;28;19925;-81
2022/05/08 02:29:49;;;;;;;;;;;11.60;99.90;;;;;;5045401;28;19932;-79
2022/05/08 02:32:16;;;;;;;;;;;11.60;99.90;;;;;;5053459;28;19955;-78
2022/05/08 02:34:42;;;;;;;;;;;11.50;99.90;;;;;;5048595;28;19924;-78
2022/05/08 02:37:09;;;;;;;;;;;11.50;99.90;;;;;;5047929;28;19933;-77
2022/05/08 02:39:36;;;;;;;;;;;11.40;99.90;;;;;;5047467;28;19929;-77
2022/05/08 02:42:03;;;;;;;;;;;11.40;99.90;;;;;;5050115;28;20290;-78
2022/05/08 02:44:30;;;;;;;;;;;11.40;99.90;;;;;;5045431;28;19925;-78
2022/05/08 02:46:58;;;;;;;;;;;11.30;99.90;;;;;;5049482;28;19931;-78
2022/05/08 02:49:24;;;;;;;;;;;11.30;99.90;;;;;;5053937;28;20291;-77
2022/05/08 02:51:51;;;;;;;;;;;11.20;99.90;;;;;;5047569;28;20023;-81
2022/05/08 02:54:18;;;;;;;;;;;11.20;99.90;;;;;;5045516;28;19924;-77
2022/05/08 02:59:29;;;;;;;;;;;11.00;99.90;;;;;;5044757;28;20043;-76
2022/05/08 03:01:55;;;;;;;;;;;11.00;99.90;;;;;;5042203;28;20040;-76
2022/05/08 03:04:23;;;;;;;;;;;11.00;99.90;;;;;;5044828;28;20299;-75
2022/05/08 03:06:50;;;;;;;;;;;10.90;99.90;;;;;;5045128;28;20027;-78
2022/05/08 03:09:17;;;;;;;;;;;10.90;99.90;;;;;;5043961;28;19924;-77
2022/05/08 03:11:44;;;;;;;;;;;10.90;99.90;;;;;;5051502;28;19925;-76
2022/05/08 03:14:11;;;;;;;;;;;10.90;99.90;;;;;;5045899;28;20291;-76
2022/05/08 03:16:38;;;;;;;;;;;11.00;99.90;;;;;;5048201;28;19929;-77
2022/05/08 03:19:05;;;;;;;;;;;11.00;99.90;;;;;;5050841;28;19929;-77
2022/05/08 03:21:34;;;;;;;;;;;11.00;99.90;;;;;;5047527;28;19933;-76
2022/05/08 03:24:01;;;;;;;;;;;11.00;99.90;;;;;;5043331;28;19952;-77
2022/05/08 03:26:30;;;;;;;;;;;11.10;99.90;;;;;;5044881;28;20408;-76
2022/05/08 03:28:57;;;;;;;;;;;11.10;99.90;;;;;;5050115;28;19931;-76
2022/05/08 03:31:23;;;;;;;;;;;11.20;99.90;;;;;;5047203;28;19964;-76
2022/05/08 03:33:50;;;;;;;;;;;11.20;99.90;;;;;;5044261;28;20398;-75
2022/05/08 03:36:17;;;;;;;;;;;11.20;99.90;;;;;;5083153;22;19924;-75
2022/05/08 03:38:47;;;;;;;;;;;11.20;99.90;;;;;;5085393;28;19931;-76
2022/05/08 03:41:15;;;;;;;;;;;11.20;99.90;;;;;;5084463;28;20422;-77
2022/05/08 03:43:42;;;;;;;;;;;11.20;99.90;;;;;;5078158;28;20012;-77
2022/05/08 03:46:08;;;;;;;;;;;11.20;99.90;;;;;;5077006;28;19930;-77
2022/05/08 03:48:35;;;;;;;;;;;11.20;99.90;;;;;;5079879;28;20355;-77
2022/05/08 03:51:02;;;;;;;;;;;11.20;99.90;;;;;;5077891;28;19931;-76
2022/05/08 03:53:29;;;;;;;;;;;11.20;99.90;;;;;;5053914;28;20052;-77
2022/05/08 03:56:02;;;;;;;;;;;11.20;99.90;;;;;;5064396;28;20371;-77
2022/05/08 03:58:29;;;;;;;;;;;11.20;99.90;;;;;;5061463;28;20307;-76
2022/05/08 04:00:56;;;;;;;;;;;11.10;99.90;;;;;;5063863;28;19931;-75
2022/05/08 04:03:22;;;;;;;;;;;11.10;99.90;;;;;;5066271;28;19932;-78
2022/05/08 04:05:49;;;;;;;;;;;11.10;99.90;;;;;;5063326;28;19930;-76
2022/05/08 04:08:19;;;;;;;;;;;11.10;99.90;;;;;;5061803;28;19924;-75
2022/05/08 04:10:46;;;;;;;;;;;11.10;99.90;;;;;;5059154;28;19947;-76
2022/05/08 04:13:14;;;;;;;;;;;11.10;99.90;;;;;;5062034;28;19964;-76
2022/05/08 04:18:25;;;;;;;;;;;11.10;99.90;;;;;;5061804;28;19931;-78
2022/05/08 04:20:52;;;;;;;;;;;11.10;99.90;;;;;;5061257;28;20391;-75
2022/05/08 04:26:05;;;;;;;;;;;11.20;99.90;;;;;;5063739;28;19935;-75
2022/05/08 04:28:33;;;;;;;;;;;11.10;99.90;;;;;;5059379;28;19931;-76
2022/05/08 04:31:00;;;;;;;;;;;11.20;99.90;;;;;;5066148;28;20027;-74
2022/05/08 04:33:26;;;;;;;;;;;11.20;99.90;;;;;;5061695;28;19928;-74
2022/05/08 04:35:53;;;;;;;;;;;11.20;99.90;;;;;;5064856;28;19928;-76
2022/05/08 04:38:20;;;;;;;;;;;11.20;99.90;;;;;;5057248;28;20233;-76
2022/05/08 04:40:46;;;;;;;;;;;11.20;99.90;;;;;;5063233;28;19932;-75
2022/05/08 04:43:13;;;;;;;;;;;11.20;99.90;;;;;;5060522;28;19935;-75
2022/05/08 04:45:41;;;;;;;;;;;11.20;99.90;;;;;;5058689;28;19924;-76
2022/05/08 04:48:08;;;;;;;;;;;11.10;99.90;;;;;;5066226;28;19931;-74
2022/05/08 04:50:37;;;;;;;;;;;11.10;99.90;;;;;;5061218;28;20019;-74
2022/05/08 04:53:04;;;;;;;;;;;11.10;99.90;;;;;;5060723;28;19960;-76
2022/05/08 04:55:31;;;;;;;;;;;11.10;99.90;;;;;;5063504;28;19924;-76
2022/05/08 04:57:58;;;;;;;;;;;11.10;99.90;;;;;;5063943;28;19924;-77
2022/05/08 05:00:25;;;;;;;;;;;11.10;99.90;;;;;;5066087;28;19924;-74
2022/05/08 05:02:53;;;;;;;;;;;11.10;99.90;;;;;;5065401;28;19924;-75
2022/05/08 05:05:20;;;;;;;;;;;11.20;99.90;;;;;;5068046;28;19924;-76
2022/05/08 05:07:47;;;;;;;;;;;11.20;99.90;;;;;;5055757;28;19931;-76
2022/05/08 05:10:14;;;;;;;;;;;11.20;99.90;;;;;;5057390;28;20397;-76
2022/05/08 05:12:40;;;;;;;;;;;11.10;99.90;;;;;;5061555;28;20380;-76
2022/05/08 05:15:08;;;;;;;;;;;11.10;99.90;;;;;;5057965;28;19932;-77
2022/05/08 05:17:35;;;;;;;;;;;11.10;99.90;;;;;;5063720;28;19925;-80
2022/05/08 05:20:03;;;;;;;;;;;11.20;99.90;;;;;;5060562;28;20008;-76
2022/05/08 05:22:30;;;;;;;;;;;11.20;99.90;;;;;;5067544;28;19936;-76
2022/05/08 05:24:57;;;;;;;;;;;11.20;99.90;;;;;;5061212;28;19925;-76
2022/05/08 05:27:24;;;;;;;;;;;11.20;99.90;;;;;;5069759;28;20375;-77
2022/05/08 05:29:51;;;;;;;;;;;11.30;99.90;;;;;;5067935;28;19924;-75
2022/05/08 05:32:17;;;;;;;;;;;11.20;99.90;;;;;;5060902;28;19924;-76
2022/05/08 05:34:44;;;;;;;;;;;11.20;99.90;;;;;;5065413;28;19931;-76
2022/05/08 05:37:12;;;;;;;;;;;11.30;99.90;;;;;;5062772;28;19933;-76
2022/05/08 05:39:39;;;;;;;;;;;11.30;99.90;;;;;;5063091;28;19932;-77
2022/05/08 05:42:06;;;;;;;;;;;11.40;99.90;;;;;;5061319;28;20036;-77
2022/05/08 05:44:32;;;;;;;;;;;11.30;99.90;;;;;;5062603;28;20390;-79
2022/05/08 05:49:43;;;;;;;;;;;11.40;99.90;;;;;;5062311;28;19971;-77
2022/05/08 05:52:10;;;;;;;;;;;11.40;99.90;;;;;;5060120;28;19947;-75
2022/05/08 05:54:38;;;;;;;;;;;11.40;99.90;;;;;;5052354;28;19963;-76
2022/05/08 05:57:05;;;;;;;;;;;11.40;99.90;;;;;;5059544;28;20012;-76
2022/05/08 05:59:32;;;;;;;;;;;11.30;99.90;;;;;;5064518;28;19931;-76
2022/05/08 06:01:58;;;;;;;;;;;11.30;99.90;;;;;;5052053;28;19943;-76
2022/05/08 06:04:25;;;;;;;;;;;11.30;99.90;;;;;;5063918;28;19943;-74
2022/05/08 06:06:51;;;;;;;;;;;11.30;99.90;;;;;;5057450;28;19932;-75
2022/05/08 06:09:18;;;;;;;;;;;11.30;99.90;;;;;;5058021;28;19931;-77
2022/05/08 06:11:46;;;;;;;;;;;11.30;99.90;;;;;;5062010;28;19933;-76
2022/05/08 06:14:13;;;;;;;;;;;11.40;99.90;;;;;;5063223;28;19925;-77
2022/05/08 06:16:41;;;;;;;;;;;11.30;99.90;;;;;;5063453;28;19925;-78
2022/05/08 06:19:08;;;;;;;;;;;11.30;99.90;;;;;;5061329;28;19931;-77
2022/05/08 06:21:34;;;;;;;;;;;11.30;99.90;;;;;;5060462;28;19987;-77
2022/05/08 06:24:01;;;;;;;;;;;11.30;99.90;;;;;;5061120;28;20417;-77
2022/05/08 06:26:28;;;;;;;;;;;11.30;99.90;;;;;;5054611;28;20394;-76
2022/05/08 06:28:57;;;;;;;;;;;11.40;99.90;;;;;;5062241;28;20023;-77
2022/05/08 06:31:24;;;;;;;;;;;11.40;99.90;;;;;;5057034;28;19935;-77
2022/05/08 06:33:50;;;;;;;;;;;11.50;99.90;;;;;;5068691;28;19931;-76
2022/05/08 06:36:17;;;;;;;;;;;11.40;99.90;;;;;;5054044;28;20518;-76
2022/05/08 06:38:44;;;;;;;;;;;11.40;99.90;;;;;;5061203;28;20035;-76
2022/05/08 06:41:10;;;;;;;;;;;11.40;99.90;;;;;;5069087;28;19931;-76
2022/05/08 06:43:39;;;;;;;;;;;11.40;99.90;;;;;;5067523;28;19924;-76
2022/05/08 06:46:08;;;;;;;;;;;11.50;99.90;;;;;;5064492;28;19982;-75
2022/05/08 06:48:35;;;;;;;;;;;11.50;99.90;;;;;;5061502;28;19937;-76
2022/05/08 06:51:02;;;;;;;;;;;11.50;99.90;;;;;;5078319;28;19924;-76
2022/05/08 06:53:28;;;;;;;;;;;11.80;99.90;;;;;;5073026;28;19924;-77
2022/05/08 06:55:55;;;;;;;;;;;12.00;99.90;;;;;;5056645;28;19939;-76
2022/05/08 06:58:24;;;;;;;;;;;12.00;99.90;;;;;;5054823;28;19940;-75
2022/05/08 07:03:37;;;;;;;;;;;12.00;99.40;;;;;;5059849;28;19934;-74
2022/05/08 07:06:04;;;;;;;;;;;12.30;99.00;;;;;;5056220;28;20027;-78
2022/05/08 07:08:30;;;;;;;;;;;13.40;96.30;;;;;;5053848;28;19925;-75
2022/05/08 07:10:57;;;;;;;;;;;14.10;93.10;;;;;;5058451;28;20325;-75
2022/05/08 07:13:26;;;;;;;;;;;13.50;92.90;;;;;;5062858;28;20424;-75
2022/05/08 07:15:53;;;;;;;;;;;13.30;93.80;;;;;;5060536;28;20025;-75
2022/05/08 07:18:20;;;;;;;;;;;13.30;92.30;;;;;;5053955;28;19987;-71
2022/05/08 07:20:48;;;;;;;;;;;13.70;90.20;;;;;;5051585;28;19932;-75
2022/05/08 07:23:14;;;;;;;;;;;13.60;88.40;;;;;;5055097;28;19928;-73
2022/05/08 07:25:41;;;;;;;;;;;14.30;86.10;;;;;;5052715;28;19925;-74
2022/05/08 07:28:08;;;;;;;;;;;13.70;81.30;;;;;;5057111;28;19931;-73
2022/05/08 07:30:34;;;;;;;;;;;13.40;80.80;;;;;;5060629;28;20074;-73
2022/05/08 07:33:01;;;;;;;;;;;13.40;81.20;;;;;;5057392;28;20109;-74
2022/05/08 07:38:16;;;;;;;;;;;13.80;79.40;;;;;;5054511;28;19931;-74
2022/05/08 07:40:47;;;;;;;;;;;15.20;71.80;;;;;;5054573;28;19924;-73
2022/05/08 07:43:15;;;;;;;;;;;16.20;65.50;;;;;;5053434;28;20446;-74
2022/05/08 07:45:42;;;;;;;;;;;15.60;65.40;;;;;;5053674;28;20436;-75
2022/05/08 07:48:09;;;;;;;;;;;15.70;65.40;;;;;;5058332;28;20014;-77
2022/05/08 07:50:36;;;;;;;;;;;15.40;63.40;;;;;;5057212;28;19925;-74
2022/05/08 07:53:03;;;;;;;;;;;15.60;62.90;;;;;;5055667;28;20023;-75
2022/05/08 07:55:32;;;;;;;;;;;16.70;59.70;;;;;;5048982;28;20099;-74
2022/05/08 07:57:58;;;;;;;;;;;16.70;57.90;;;;;;5052881;28;19924;-74
2022/05/08 08:00:25;;;;;;;;;;;15.70;60.20;;;;;;5054059;28;19924;-75
2022/05/08 08:02:52;;;;;;;;;;;16.10;57.20;;;;;;5051634;28;19925;-77
2022/05/08 08:05:20;;;;;;;;;;;15.70;57.70;;;;;;5055394;28;19936;-77
2022/05/08 08:07:47;;;;;;;;;;;16.00;58.60;;;;;;5055570;28;20451;-75
2022/05/08 08:10:16;;;;;;;;;;;15.00;59.50;;;;;;5056612;28;20097;-77
2022/05/08 08:12:44;;;;;;;;;;;14.80;60.90;;;;;;5060202;28;19936;-77
2022/05/08 08:15:11;;;;;;;;;;;14.90;63.00;;;;;;5066596;28;19936;-76
2022/05/08 08:17:39;;;;;;;;;;;15.50;61.40;;;;;;5065519;28;20040;-74
2022/05/08 08:20:06;;;;;;;;;;;15.20;60.70;;;;;;5067165;28;19931;-75
2022/05/08 08:22:33;;;;;;;;;;;15.10;62.40;;;;;;5066629;28;20410;-76
2022/05/08 08:25:00;;;;;;;;;;;15.40;60.70;;;;;;5070740;28;20472;-75
2022/05/08 08:27:30;;;;;;;;;;;16.50;57.50;;;;;;5060684;28;19924;-74
2022/05/08 08:29:59;;;;;;;;;;;16.40;58.50;;;;;;5070228;28;20031;-75
2022/05/08 08:32:26;;;;;;;;;;;16.10;59.00;;;;;;5060750;28;19939;-76
2022/05/08 08:34:53;;;;;;;;;;;17.10;55.80;;;;;;5049786;28;19944;-74
2022/05/08 08:37:19;;;;;;;;;;;17.60;52.30;;;;;;5063635;28;19940;-74
2022/05/08 08:39:46;;;;;;;;;;;18.00;52.50;;;;;;5055040;28;19924;-74
2022/05/08 08:42:17;;;;;;;;;;;17.50;50.80;;;;;;5062661;28;19925;-75
2022/05/08 08:47:46;;;;;;;;;;;16.30;53.90;;;;;;5054011;28;20398;-77
2022/05/08 08:50:13;;;;;;;;;;;16.00;56.90;;;;;;5051692;28;19947;-75
2022/05/08 08:52:39;;;;;;;;;;;17.60;53.50;;;;;;5059958;28;19925;-74
2022/05/08 08:55:07;;;;;;;;;;;17.70;51.20;;;;;;5053987;28;20379;-72
2022/05/08 08:57:33;;;;;;;;;;;17.40;52.30;;;;;;5064413;28;19956;-75
2022/05/08 09:00:00;;;;;;;;;;;17.60;52.60;;;;;;5069182;28;19936;-75
2022/05/08 09:02:27;;;;;;;;;;;16.90;49.20;;;;;;5076016;28;19924;-77
2022/05/08 09:04:55;;;;;;;;;;;16.80;50.70;;;;;;5056757;28;19931;-75
2022/05/08 09:07:38;;;;;;;;;;;17.60;51.50;;;;;;5065755;28;19931;-76
2022/05/08 09:10:11;;;;;;;;;;;17.60;49.60;;;;;;5064223;28;19931;-75
2022/05/08 09:12:39;;;;;;;;;;;17.70;50.10;;;;;;5060351;28;19924;-73
2022/05/08 09:15:22;;;;;;;;;;;17.20;51.60;;;;;;5054571;28;19933;-75
2022/05/08 09:17:50;;;;;;;;;;;16.90;51.90;;;;;;5063465;28;19924;-74
2022/05/08 09:20:28;;;;;;;;;;;16.50;52.60;;;;;;5075853;28;19924;-74
2022/05/08 09:23:01;;;;;;;;;;;17.40;52.00;;;;;;5066308;28;19928;-74
2022/05/08 09:25:44;;;;;;;;;;;17.30;50.50;;;;;;5052939;28;19933;-75
2022/05/08 09:28:11;;;;;;;;;;;17.60;51.00;;;;;;5058130;28;20280;-75
2022/05/08 09:30:52;;;;;;;;;;;17.20;51.20;;;;;;5057855;28;19924;-75
2022/05/08 09:33:23;;;;;;;;;;;17.80;50.80;;;;;;5055041;28;19939;-74
2022/05/08 09:35:51;;;;;;;;;;;18.50;46.40;;;;;;5056592;28;20395;-76
2022/05/08 09:38:18;;;;;;;;;;;18.00;47.40;;;;;;5054312;28;20395;-76
2022/05/08 09:40:46;;;;;;;;;;;17.30;48.60;;;;;;5054043;28;20332;-77
2022/05/08 09:43:28;;;;;;;;;;;17.60;48.80;;;;;;5057170;28;20492;-76
2022/05/08 09:45:59;;;;;;;;;;;17.60;45.00;;;;;;5057122;28;20343;-77
2022/05/08 09:48:26;;;;;;;;;;;17.50;45.40;;;;;;5056512;28;19932;-76
2022/05/08 09:50:56;;;;;;;;;;;17.70;44.30;;;;;;5057032;28;20018;-77
2022/05/08 09:53:23;;;;;;;;;;;17.50;44.80;;;;;;5058918;28;19932;-77
2022/05/08 09:55:50;;;;;;;;;;;17.80;44.90;;;;;;5057174;28;20492;-77
2022/05/08 09:58:16;;;;;;;;;;;17.70;43.50;;;;;;5062923;28;19932;-77
2022/05/08 10:00:45;;;;;;;;;;;17.00;45.80;;;;;;5055934;28;19925;-78
2022/05/08 10:03:12;;;;;;;;;;;17.10;44.30;;;;;;5063745;28;19931;-78
2022/05/08 10:05:38;;;;;;;;;;;16.70;42.50;;;;;;5064819;28;20362;-70
2022/05/08 10:08:08;;;;;;;;;;;16.20;41.90;;;;;;5059995;28;19924;-70
2022/05/08 10:16:36;;;;;;;;;;;16.10;36.50;;;;;;5060200;28;19932;-77
2022/05/08 10:19:18;;;;;;;;;;;16.20;38.50;;;;;;5052296;28;19932;-76
2022/05/08 10:22:02;;;;;;;;;;;16.80;37.30;;;;;;5063917;28;20276;-79
2022/05/08 10:24:32;;;;;;;;;;;16.60;33.70;;;;;;5060322;28;19990;-79
2022/05/08 10:27:13;;;;;;;;;;;16.50;33.80;;;;;;5060251;28;19942;-77
2022/05/08 10:29:40;;;;;;;;;;;16.90;36.60;;;;;;5054191;28;19925;-77
2022/05/08 10:32:09;;;;;;;;;;;17.00;35.80;;;;;;5059213;28;19928;-76
2022/05/08 10:34:37;;;;;;;;;;;17.00;34.80;;;;;;5056827;28;20024;-76
2022/05/08 10:37:22;;;;;;;;;;;17.00;33.40;;;;;;5056751;28;20384;-73
2022/05/08 10:39:51;;;;;;;;;;;17.00;33.20;;;;;;5050405;28;19931;-78
2022/05/08 10:42:39;;;;;;;;;;;17.50;31.70;;;;;;5065645;28;19925;-82
2022/05/08 10:45:07;;;;;;;;;;;17.20;31.50;;;;;;5067877;28;20009;-78
2022/05/08 10:47:41;;;;;;;;;;;16.90;30.00;;;;;;5055604;28;20403;-81
2022/05/08 10:50:08;;;;;;;;;;;16.70;31.10;;;;;;5069491;28;19994;-79
2022/05/08 10:52:39;;;;;;;;;;;16.80;30.80;;;;;;5056732;28;19924;-79
2022/05/08 10:55:08;;;;;;;;;;;17.00;31.80;;;;;;5064966;28;20283;-78
2022/05/08 10:57:35;;;;;;;;;;;17.30;31.00;;;;;;5066839;28;19925;-81
2022/05/08 11:00:03;;;;;;;;;;;17.50;31.20;;;;;;5066477;28;19938;-82
2022/05/08 11:02:39;;;;;;;;;;;17.50;31.60;;;;;;5058992;28;20368;-83
2022/05/08 11:05:06;;;;;;;;;;;17.20;31.90;;;;;;5061734;28;19939;-81
2022/05/08 11:07:33;;;;;;;;;;;17.10;31.30;;;;;;5065669;28;20277;-82
2022/05/08 11:10:02;;;;;;;;;;;17.40;29.70;;;;;;5062894;28;20315;-83
2022/05/08 11:12:30;;;;;;;;;;;17.50;28.40;;;;;;5061629;28;20309;-83
2022/05/08 11:15:09;;;;;;;;;;;17.50;29.70;;;;;;5060882;28;20284;-83
2022/05/08 11:17:36;;;;;;;;;;;17.60;30.10;;;;;;5062654;28;19998;-84
2022/05/08 11:20:03;;;;;;;;;;;17.90;31.10;;;;;;5067504;28;19925;-84
2022/05/08 11:22:31;;;;;;;;;;;17.70;30.10;;;;;;5061331;28;19975;-84
2022/05/08 11:25:10;;;;;;;;;;;17.70;30.00;;;;;;5064628;28;19935;-81
2022/05/08 11:27:38;;;;;;;;;;;17.80;28.70;;;;;;5061519;28;19924;-83
2022/05/08 11:30:06;;;;;;;;;;;17.90;27.30;;;;;;5067599;28;19931;-80
2022/05/08 11:38:15;;;;;;;;;;;17.80;28.70;;;;;;5053569;28;20002;-80
2022/05/08 11:40:42;;;;;;;;;;;18.00;27.20;;;;;;5066503;28;20541;-80
2022/05/08 11:43:10;;;;;;;;;;;17.90;27.00;;;;;;5059186;28;20022;-81
2022/05/08 11:45:37;;;;;;;;;;;18.10;28.90;;;;;;5064288;28;20318;-78
2022/05/08 11:48:04;;;;;;;;;;;18.30;27.00;;;;;;5058687;28;19928;-81
2022/05/08 11:50:31;;;;;;;;;;;17.90;27.70;;;;;;5066520;28;20295;-79
2022/05/08 11:53:02;;;;;;;;;;;18.00;27.30;;;;;;5072752;28;19956;-77
2022/05/08 11:55:28;;;;;;;;;;;17.80;26.60;;;;;;5057700;28;20264;-74
2022/05/08 11:57:55;;;;;;;;;;;17.70;27.60;;;;;;5053417;28;19924;-75
2022/05/08 12:00:31;;;;;;;;;;;18.20;28.30;;;;;;5060372;28;19978;-76
2022/05/08 12:02:57;;;;;;;;;;;18.30;27.10;;;;;;5062233;28;20394;-75
2022/05/08 12:05:25;;;;;;;;;;;18.10;28.70;;;;;;5059868;28;20302;-77
2022/05/08 12:07:52;;;;;;;;;;;17.90;28.50;;;;;;5063089;28;20037;-75
2022/05/08 12:10:19;;;;;;;;;;;17.90;29.50;;;;;;5058041;28;19936;-75
2022/05/08 12:12:46;;;;;;;;;;;18.50;29.40;;;;;;5061605;28;20308;-74
2022/05/08 12:15:20;;;;;;;;;;;18.80;26.80;;;;;;5059737;28;20018;-75
2022/05/08 12:18:00;;;;;;;;;;;18.60;26.00;;;;;;5060025;28;20350;-75
2022/05/08 12:20:27;;;;;;;;;;;18.80;26.40;;;;;;5057559;28;19956;-75
2022/05/08 12:23:01;;;;;;;;;;;18.30;26.70;;;;;;5061409;28;19951;-77
2022/05/08 12:25:28;;;;;;;;;;;18.20;26.80;;;;;;5062389;28;19930;-77
2022/05/08 12:27:54;;;;;;;;;;;18.40;27.20;;;;;;5059475;28;19925;-76
2022/05/08 12:30:21;;;;;;;;;;;18.40;26.40;;;;;;5058275;28;19938;-76
2022/05/08 12:32:48;;;;;;;;;;;18.50;27.10;;;;;;5061127;28;20427;-78
2022/05/08 12:35:16;;;;;;;;;;;18.40;25.40;;;;;;5057251;28;20020;-76
2022/05/08 12:37:43;;;;;;;;;;;18.70;25.70;;;;;;5070335;28;20446;-76
2022/05/08 12:40:10;;;;;;;;;;;18.70;24.70;;;;;;5058625;28;20292;-77
2022/05/08 12:42:37;;;;;;;;;;;18.60;26.20;;;;;;5071644;28;19985;-76
2022/05/08 12:45:04;;;;;;;;;;;18.70;25.70;;;;;;5065154;28;20338;-73
2022/05/08 12:47:30;;;;;;;;;;;18.60;25.20;;;;;;5067812;28;19924;-76
2022/05/08 12:49:57;;;;;;;;;;;18.70;24.00;;;;;;5055470;28;19925;-75
2022/05/08 12:52:25;;;;;;;;;;;18.90;24.90;;;;;;5060908;28;19925;-75
2022/05/08 12:54:52;;;;;;;;;;;19.00;26.50;;;;;;5064664;28;19925;-80
2022/05/08 12:59:59;;;;;;;;;;;19.30;23.60;;;;;;5059034;28;19924;-74
2022/05/08 13:02:27;;;;;;;;;;;19.10;22.80;;;;;;5062882;28;19931;-78
2022/05/08 13:04:54;;;;;;;;;;;19.10;23.80;;;;;;5059223;28;19948;-75
2022/05/08 13:07:20;;;;;;;;;;;19.30;23.30;;;;;;5069927;28;19934;-77
2022/05/08 13:09:49;;;;;;;;;;;18.80;23.30;;;;;;5060203;28;19951;-74
2022/05/08 13:12:16;;;;;;;;;;;19.20;24.00;;;;;;5064349;28;19925;-73
2022/05/08 13:14:42;;;;;;;;;;;18.90;23.30;;;;;;5058435;28;19929;-74
2022/05/08 13:17:10;;;;;;;;;;;19.50;25.00;;;;;;5072024;28;19924;-74
2022/05/08 13:19:37;;;;;;;;;;;19.60;25.00;;;;;;5064475;28;19964;-75
2022/05/08 13:22:04;;;;;;;;;;;18.90;23.50;;;;;;5058689;28;19932;-77
2022/05/08 13:24:30;;;;;;;;;;;19.00;24.10;;;;;;5067946;28;20346;-74
2022/05/08 13:27:01;;;;;;;;;;;19.30;24.10;;;;;;5066768;28;20576;-74
2022/05/08 13:29:30;;;;;;;;;;;19.30;22.90;;;;;;5059474;28;19929;-79
2022/05/08 13:31:56;;;;;;;;;;;19.00;23.30;;;;;;5059203;28;19931;-76
2022/05/08 13:34:25;;;;;;;;;;;19.30;23.10;;;;;;5061768;28;20039;-74
2022/05/08 13:36:51;;;;;;;;;;;19.40;21.30;;;;;;5065398;28;20011;-75
2022/05/08 13:39:18;;;;;;;;;;;19.20;22.50;;;;;;5068647;28;20020;-74
2022/05/08 13:41:45;;;;;;;;;;;19.50;21.90;;;;;;5065338;28;20463;-76
2022/05/08 13:44:13;;;;;;;;;;;20.00;20.80;;;;;;5056675;28;20027;-76
2022/05/08 13:46:40;;;;;;;;;;;20.20;20.30;;;;;;5063272;28;19931;-75
2022/05/08 13:49:08;;;;;;;;;;;20.20;20.20;;;;;;5065964;28;19928;-75
2022/05/08 13:51:35;;;;;;;;;;;19.60;21.60;;;;;;5073505;28;19925;-75
2022/05/08 13:54:02;;;;;;;;;;;19.60;20.90;;;;;;5070194;28;20443;-76
2022/05/08 13:56:29;;;;;;;;;;;19.60;20.60;;;;;;5058499;28;19936;-76
2022/05/08 13:58:56;;;;;;;;;;;19.60;21.50;;;;;;5061350;28;19979;-75
2022/05/08 14:01:24;;;;;;;;;;;19.20;20.00;;;;;;5055112;28;20430;-74
2022/05/08 14:03:51;;;;;;;;;;;19.10;21.40;;;;;;5062006;28;20014;-76
2022/05/08 14:06:19;;;;;;;;;;;19.60;21.60;;;;;;5064136;28;19935;-77
2022/05/08 14:08:46;;;;;;;;;;;19.30;20.70;;;;;;5066259;28;20016;-74
2022/05/08 14:11:13;;;;;;;;;;;19.70;20.90;;;;;;5054503;28;19943;-77
2022/05/08 14:13:40;;;;;;;;;;;19.40;20.70;;;;;;5066365;28;19925;-75
2022/05/08 14:16:07;;;;;;;;;;;19.50;20.90;;;;;;5066885;28;20591;-75
2022/05/08 14:18:36;;;;;;;;;;;19.60;20.10;;;;;;5056495;28;20041;-78
2022/05/08 14:21:03;;;;;;;;;;;19.50;20.40;;;;;;5064518;28;19936;-80
2022/05/08 14:23:30;;;;;;;;;;;19.60;20.50;;;;;;5063377;28;19925;-80
2022/05/08 14:25:57;;;;;;;;;;;19.90;19.90;;;;;;5069923;28;19947;-81
2022/05/08 14:28:23;;;;;;;;;;;19.70;20.30;;;;;;5053805;28;19972;-80
2022/05/08 14:36:20;;;;;;;;;;;19.30;20.40;;;;;;5061857;28;20006;-79
2022/05/08 14:38:47;;;;;;;;;;;19.30;20.50;;;;;;5054841;28;19925;-77
2022/05/08 14:41:14;;;;;;;;;;;19.40;20.40;;;;;;5065111;28;19978;-77
2022/05/08 14:43:42;;;;;;;;;;;19.50;21.80;;;;;;5059093;28;20009;-77
2022/05/08 14:46:08;;;;;;;;;;;19.90;21.20;;;;;;5059803;28;19968;-74
2022/05/08 14:48:35;;;;;;;;;;;19.70;20.60;;;;;;5054827;28;19931;-80
2022/05/08 14:51:03;;;;;;;;;;;19.50;21.50;;;;;;5054949;28;19948;-82
2022/05/08 14:53:38;;;;;;;;;;;19.80;20.50;;;;;;5062200;28;19924;-83
2022/05/08 14:56:05;;;;;;;;;;;19.70;20.60;;;;;;5063869;28;19932;-81
2022/05/08 14:58:32;;;;;;;;;;;19.80;20.20;;;;;;5061591;28;19923;-83
2022/05/08 15:00:59;;;;;;;;;;;19.70;19.40;;;;;;5062284;28;19959;-77
2022/05/08 15:03:26;;;;;;;;;;;19.80;19.70;;;;;;5052986;28;20008;-79